sensor_id;sensor_type;location;lat;lon;timestamp;temperature;humidity
7530;DHT22;3806;52.270;10.544;2022-11-04T00:01:41;12.70;98.50
7530;DHT22;3806;52.270;10.544;2022-11-04T00:04:07;12.70;98.50
7530;DHT22;3806;52.270;10.544;2022-11-04T00:06:39;12.70;98.50
7530;DHT22;3806;52.270;10.544;2022-11-04T00:09:07;12.80;98.40
7530;DHT22;3806;52.270;10.544;2022-11-04T00:11:33;12.80;98.50
7530;DHT22;3806;52.270;10.544;2022-11-04T00:14:18;12.80;98.50
7530;DHT22;3806;52.270;10.544;2022-11-04T00:16:44;12.80;98.30
7530;DHT22;3806;52.270;10.544;2022-11-04T00:19:28;12.80;98.40
7530;DHT22;3806;52.270;10.544;2022-11-04T00:22:13;12.80;98.50
7530;DHT22;3806;52.270;10.544;2022-11-04T00:24:57;12.80;98.60
7530;DHT22;3806;52.270;10.544;2022-11-04T00:27:41;12.80;98.70
7530;DHT22;3806;52.270;10.544;2022-11-04T00:30:25;12.80;98.60
7530;DHT22;3806;52.270;10.544;2022-11-04T00:32:51;12.80;98.70
7530;DHT22;3806;52.270;10.544;2022-11-04T00:35:35;12.80;98.70
7530;DHT22;3806;52.270;10.544;2022-11-04T00:38:00;12.70;98.70
7530;DHT22;3806;52.270;10.544;2022-11-04T00:40:26;12.70;98.70
7530;DHT22;3806;52.270;10.544;2022-11-04T00:42:52;12.70;98.70
7530;DHT22;3806;52.270;10.544;2022-11-04T00:45:17;12.80;98.70
7530;DHT22;3806;52.270;10.544;2022-11-04T00:47:43;12.80;98.60
7530;DHT22;3806;52.270;10.544;2022-11-04T00:50:08;12.80;98.60
7530;DHT22;3806;52.270;10.544;2022-11-04T00:52:34;12.80;98.60
7530;DHT22;3806;52.270;10.544;2022-11-04T00:54:59;12.80;98.50
7530;DHT22;3806;52.270;10.544;2022-11-04T00:57:25;12.80;98.50
7530;DHT22;3806;52.270;10.544;2022-11-04T00:59:50;12.80;98.60
7530;DHT22;3806;52.270;10.544;2022-11-04T01:02:16;12.70;98.60
7530;DHT22;3806;52.270;10.544;2022-11-04T01:04:42;12.70;98.50
7530;DHT22;3806;52.270;10.544;2022-11-04T01:07:07;12.70;98.60
7530;DHT22;3806;52.270;10.544;2022-11-04T01:09:33;12.70;98.60
7530;DHT22;3806;52.270;10.544;2022-11-04T01:11:59;12.70;98.70
7530;DHT22;3806;52.270;10.544;2022-11-04T01:14:24;12.70;98.60
7530;DHT22;3806;52.270;10.544;2022-11-04T01:16:50;12.70;98.60
7530;DHT22;3806;52.270;10.544;2022-11-04T01:19:16;12.70;98.60
7530;DHT22;3806;52.270;10.544;2022-11-04T01:21:42;12.70;98.70
7530;DHT22;3806;52.270;10.544;2022-11-04T01:24:07;12.70;98.60
7530;DHT22;3806;52.270;10.544;2022-11-04T01:26:33;12.70;98.60
7530;DHT22;3806;52.270;10.544;2022-11-04T01:28:58;12.70;98.70
7530;DHT22;3806;52.270;10.544;2022-11-04T01:31:29;12.70;98.80
7530;DHT22;3806;52.270;10.544;2022-11-04T01:33:57;12.60;98.90
7530;DHT22;3806;52.270;10.544;2022-11-04T01:36:24;12.60;98.90
7530;DHT22;3806;52.270;10.544;2022-11-04T01:38:50;12.70;99.10
7530;DHT22;3806;52.270;10.544;2022-11-04T01:41:19;12.60;99.10
7530;DHT22;3806;52.270;10.544;2022-11-04T01:43:58;12.60;99.10
7530;DHT22;3806;52.270;10.544;2022-11-04T01:46:34;12.60;99.10
7530;DHT22;3806;52.270;10.544;2022-11-04T01:51:35;12.60;99.20
7530;DHT22;3806;52.270;10.544;2022-11-04T01:54:03;12.60;99.20
7530;DHT22;3806;52.270;10.544;2022-11-04T01:56:31;12.60;99.40
7530;DHT22;3806;52.270;10.544;2022-11-04T01:59:01;12.70;99.50
7530;DHT22;3806;52.270;10.544;2022-11-04T02:01:27;12.70;99.70
7530;DHT22;3806;52.270;10.544;2022-11-04T02:03:57;12.70;99.90
7530;DHT22;3806;52.270;10.544;2022-11-04T02:06:46;12.70;99.90
7530;DHT22;3806;52.270;10.544;2022-11-04T02:09:13;12.70;99.90
7530;DHT22;3806;52.270;10.544;2022-11-04T02:11:39;12.70;99.90
7530;DHT22;3806;52.270;10.544;2022-11-04T02:14:23;12.70;99.90
7530;DHT22;3806;52.270;10.544;2022-11-04T02:16:49;12.60;99.90
7530;DHT22;3806;52.270;10.544;2022-11-04T02:30:01;12.70;99.90
7530;DHT22;3806;52.270;10.544;2022-11-04T02:35:27;12.60;99.90
7530;DHT22;3806;52.270;10.544;2022-11-04T02:43:28;12.60;99.90
7530;DHT22;3806;52.270;10.544;2022-11-04T02:46:10;12.60;99.90
7530;DHT22;3806;52.270;10.544;2022-11-04T02:51:15;12.60;99.90
7530;DHT22;3806;52.270;10.544;2022-11-04T02:54:09;12.70;99.90
7530;DHT22;3806;52.270;10.544;2022-11-04T02:56:41;12.60;99.90
7530;DHT22;3806;52.270;10.544;2022-11-04T02:59:17;12.70;99.90
7530;DHT22;3806;52.270;10.544;2022-11-04T03:01:45;12.70;99.90
7530;DHT22;3806;52.270;10.544;2022-11-04T03:04:20;12.70;99.90
7530;DHT22;3806;52.270;10.544;2022-11-04T03:06:48;12.70;99.90
7530;DHT22;3806;52.270;10.544;2022-11-04T03:09:17;12.70;99.90
7530;DHT22;3806;52.270;10.544;2022-11-04T03:11:47;12.70;99.90
7530;DHT22;3806;52.270;10.544;2022-11-04T03:14:22;12.70;99.90
7530;DHT22;3806;52.270;10.544;2022-11-04T03:16:58;12.70;99.90
7530;DHT22;3806;52.270;10.544;2022-11-04T03:22:09;12.70;99.90
7530;DHT22;3806;52.270;10.544;2022-11-04T03:24:35;12.70;99.90
7530;DHT22;3806;52.270;10.544;2022-11-04T03:27:06;12.70;99.90
7530;DHT22;3806;52.270;10.544;2022-11-04T03:34:54;12.70;99.90
7530;DHT22;3806;52.270;10.544;2022-11-04T03:37:20;12.70;99.90
7530;DHT22;3806;52.270;10.544;2022-11-04T03:39:46;12.70;99.90
7530;DHT22;3806;52.270;10.544;2022-11-04T03:42:13;12.70;99.90
7530;DHT22;3806;52.270;10.544;2022-11-04T03:44:49;12.80;99.90
7530;DHT22;3806;52.270;10.544;2022-11-04T03:47:16;12.80;99.90
7530;DHT22;3806;52.270;10.544;2022-11-04T03:49:44;12.80;99.90
7530;DHT22;3806;52.270;10.544;2022-11-04T03:52:10;12.80;99.90
7530;DHT22;3806;52.270;10.544;2022-11-04T03:54:36;12.80;99.90
7530;DHT22;3806;52.270;10.544;2022-11-04T04:05:00;12.70;99.90
7530;DHT22;3806;52.270;10.544;2022-11-04T04:07:40;12.70;99.90
7530;DHT22;3806;52.270;10.544;2022-11-04T04:10:36;12.70;99.90
7530;DHT22;3806;52.270;10.544;2022-11-04T04:15:49;12.60;99.90
7530;DHT22;3806;52.270;10.544;2022-11-04T04:18:22;12.60;99.90
7530;DHT22;3806;52.270;10.544;2022-11-04T04:20:52;12.60;99.90
7530;DHT22;3806;52.270;10.544;2022-11-04T04:23:23;12.60;99.90
7530;DHT22;3806;52.270;10.544;2022-11-04T04:26:10;12.60;99.90
7530;DHT22;3806;52.270;10.544;2022-11-04T04:28:58;12.60;99.90
7530;DHT22;3806;52.270;10.544;2022-11-04T04:31:28;12.60;99.90
7530;DHT22;3806;52.270;10.544;2022-11-04T04:34:13;12.60;99.90
7530;DHT22;3806;52.270;10.544;2022-11-04T04:36:44;12.60;99.90
7530;DHT22;3806;52.270;10.544;2022-11-04T04:39:11;12.60;99.90
7530;DHT22;3806;52.270;10.544;2022-11-04T04:41:57;12.60;99.90
7530;DHT22;3806;52.270;10.544;2022-11-04T04:44:41;12.50;99.90
7530;DHT22;3806;52.270;10.544;2022-11-04T04:47:36;12.50;99.90
7530;DHT22;3806;52.270;10.544;2022-11-04T04:50:03;12.50;99.90
7530;DHT22;3806;52.270;10.544;2022-11-04T04:52:31;12.50;99.90
7530;DHT22;3806;52.270;10.544;2022-11-04T04:54:57;12.50;99.90
7530;DHT22;3806;52.270;10.544;2022-11-04T04:57:23;12.50;99.90
7530;DHT22;3806;52.270;10.544;2022-11-04T04:59:49;12.50;99.90
7530;DHT22;3806;52.270;10.544;2022-11-04T05:02:14;12.50;99.90
7530;DHT22;3806;52.270;10.544;2022-11-04T05:04:40;12.40;99.90
7530;DHT22;3806;52.270;10.544;2022-11-04T05:07:05;12.40;99.90
7530;DHT22;3806;52.270;10.544;2022-11-04T05:09:34;12.40;99.90
7530;DHT22;3806;52.270;10.544;2022-11-04T05:12:00;12.30;99.90
7530;DHT22;3806;52.270;10.544;2022-11-04T05:14:26;12.30;99.90
7530;DHT22;3806;52.270;10.544;2022-11-04T05:16:51;12.40;99.90
7530;DHT22;3806;52.270;10.544;2022-11-04T05:19:17;12.40;99.90
7530;DHT22;3806;52.270;10.544;2022-11-04T05:21:42;12.40;99.90
7530;DHT22;3806;52.270;10.544;2022-11-04T05:24:09;12.40;99.90
7530;DHT22;3806;52.270;10.544;2022-11-04T05:26:35;12.40;99.90
7530;DHT22;3806;52.270;10.544;2022-11-04T05:29:00;12.40;99.90
7530;DHT22;3806;52.270;10.544;2022-11-04T05:31:26;12.40;99.90
7530;DHT22;3806;52.270;10.544;2022-11-04T05:33:52;12.30;99.90
7530;DHT22;3806;52.270;10.544;2022-11-04T05:36:18;12.30;99.90
7530;DHT22;3806;52.270;10.544;2022-11-04T05:38:49;12.30;99.90
7530;DHT22;3806;52.270;10.544;2022-11-04T05:41:15;12.30;99.90
7530;DHT22;3806;52.270;10.544;2022-11-04T05:43:51;12.30;99.90
7530;DHT22;3806;52.270;10.544;2022-11-04T05:46:17;12.30;99.90
7530;DHT22;3806;52.270;10.544;2022-11-04T05:48:43;12.20;99.90
7530;DHT22;3806;52.270;10.544;2022-11-04T05:51:12;12.20;99.90
7530;DHT22;3806;52.270;10.544;2022-11-04T05:53:39;12.10;99.90
7530;DHT22;3806;52.270;10.544;2022-11-04T05:56:05;12.00;99.90
7530;DHT22;3806;52.270;10.544;2022-11-04T05:58:31;12.00;99.90
7530;DHT22;3806;52.270;10.544;2022-11-04T06:03:37;12.00;99.90
7530;DHT22;3806;52.270;10.544;2022-11-04T06:06:03;12.00;99.90
7530;DHT22;3806;52.270;10.544;2022-11-04T06:08:29;11.90;99.90
7530;DHT22;3806;52.270;10.544;2022-11-04T06:10:56;11.90;99.90
7530;DHT22;3806;52.270;10.544;2022-11-04T06:13:21;11.90;99.90
7530;DHT22;3806;52.270;10.544;2022-11-04T06:15:47;11.90;99.90
7530;DHT22;3806;52.270;10.544;2022-11-04T06:18:12;11.90;99.90
7530;DHT22;3806;52.270;10.544;2022-11-04T06:20:38;11.90;99.90
7530;DHT22;3806;52.270;10.544;2022-11-04T06:23:04;11.90;99.90
7530;DHT22;3806;52.270;10.544;2022-11-04T06:25:29;11.80;99.90
7530;DHT22;3806;52.270;10.544;2022-11-04T06:28:14;11.80;99.90
7530;DHT22;3806;52.270;10.544;2022-11-04T06:30:42;11.90;99.90
7530;DHT22;3806;52.270;10.544;2022-11-04T06:33:10;11.80;99.90
7530;DHT22;3806;52.270;10.544;2022-11-04T06:35:35;11.80;99.90
7530;DHT22;3806;52.270;10.544;2022-11-04T06:38:01;11.80;99.90
7530;DHT22;3806;52.270;10.544;2022-11-04T06:40:26;11.80;99.90
7530;DHT22;3806;52.270;10.544;2022-11-04T06:42:52;11.80;99.90
7530;DHT22;3806;52.270;10.544;2022-11-04T06:45:18;11.80;99.90
7530;DHT22;3806;52.270;10.544;2022-11-04T06:47:43;11.90;99.90
7530;DHT22;3806;52.270;10.544;2022-11-04T06:50:09;11.90;99.90
7530;DHT22;3806;52.270;10.544;2022-11-04T06:52:39;11.90;99.90
7530;DHT22;3806;52.270;10.544;2022-11-04T06:55:05;12.00;99.90
7530;DHT22;3806;52.270;10.544;2022-11-04T06:57:31;12.00;99.90
7530;DHT22;3806;52.270;10.544;2022-11-04T06:59:56;12.00;99.90
7530;DHT22;3806;52.270;10.544;2022-11-04T07:02:22;12.00;99.90
7530;DHT22;3806;52.270;10.544;2022-11-04T07:04:47;12.10;99.90
7530;DHT22;3806;52.270;10.544;2022-11-04T07:07:13;12.10;99.90
7530;DHT22;3806;52.270;10.544;2022-11-04T07:09:38;12.00;99.90
7530;DHT22;3806;52.270;10.544;2022-11-04T07:12:21;12.10;99.90
7530;DHT22;3806;52.270;10.544;2022-11-04T07:15:00;12.10;99.90
7530;DHT22;3806;52.270;10.544;2022-11-04T07:17:28;12.10;99.90
7530;DHT22;3806;52.270;10.544;2022-11-04T07:27:03;11.90;99.90
7530;DHT22;3806;52.270;10.544;2022-11-04T07:29:30;11.90;99.90
7530;DHT22;3806;52.270;10.544;2022-11-04T07:31:56;12.00;99.90
7530;DHT22;3806;52.270;10.544;2022-11-04T07:34:21;12.00;99.90
7530;DHT22;3806;52.270;10.544;2022-11-04T07:36:47;11.90;99.90
7530;DHT22;3806;52.270;10.544;2022-11-04T07:39:12;11.90;99.90
7530;DHT22;3806;52.270;10.544;2022-11-04T07:41:38;11.90;99.90
7530;DHT22;3806;52.270;10.544;2022-11-04T07:44:03;12.00;99.90
7530;DHT22;3806;52.270;10.544;2022-11-04T07:46:31;12.10;99.90
7530;DHT22;3806;52.270;10.544;2022-11-04T07:48:57;12.10;99.90
7530;DHT22;3806;52.270;10.544;2022-11-04T07:51:24;12.10;99.90
7530;DHT22;3806;52.270;10.544;2022-11-04T07:53:50;12.30;99.90
7530;DHT22;3806;52.270;10.544;2022-11-04T07:56:16;12.40;99.90
7530;DHT22;3806;52.270;10.544;2022-11-04T07:58:43;12.60;99.90
7530;DHT22;3806;52.270;10.544;2022-11-04T08:01:16;12.50;99.90
7530;DHT22;3806;52.270;10.544;2022-11-04T08:03:42;12.60;99.90
7530;DHT22;3806;52.270;10.544;2022-11-04T08:06:10;12.80;99.90
7530;DHT22;3806;52.270;10.544;2022-11-04T08:08:36;12.80;99.90
7530;DHT22;3806;52.270;10.544;2022-11-04T08:11:08;12.90;99.80
7530;DHT22;3806;52.270;10.544;2022-11-04T08:13:35;12.80;99.60
7530;DHT22;3806;52.270;10.544;2022-11-04T08:16:04;12.90;99.50
7530;DHT22;3806;52.270;10.544;2022-11-04T08:18:31;12.80;99.30
7530;DHT22;3806;52.270;10.544;2022-11-04T08:20:57;12.80;99.20
7530;DHT22;3806;52.270;10.544;2022-11-04T08:23:23;12.80;99.20
7530;DHT22;3806;52.270;10.544;2022-11-04T08:25:49;12.80;99.20
7530;DHT22;3806;52.270;10.544;2022-11-04T08:28:14;12.80;99.10
7530;DHT22;3806;52.270;10.544;2022-11-04T08:30:56;12.80;99.10
7530;DHT22;3806;52.270;10.544;2022-11-04T08:33:23;12.80;99.00
7530;DHT22;3806;52.270;10.544;2022-11-04T08:35:49;12.80;98.80
7530;DHT22;3806;52.270;10.544;2022-11-04T08:38:15;12.90;98.90
7530;DHT22;3806;52.270;10.544;2022-11-04T08:40:41;12.90;98.90
7530;DHT22;3806;52.270;10.544;2022-11-04T08:43:06;12.90;98.80
7530;DHT22;3806;52.270;10.544;2022-11-04T08:45:41;13.00;98.80
7530;DHT22;3806;52.270;10.544;2022-11-04T08:48:08;13.10;98.70
7530;DHT22;3806;52.270;10.544;2022-11-04T08:50:34;13.20;98.50
7530;DHT22;3806;52.270;10.544;2022-11-04T08:53:00;13.40;98.40
7530;DHT22;3806;52.270;10.544;2022-11-04T08:55:30;13.60;98.20
7530;DHT22;3806;52.270;10.544;2022-11-04T08:57:57;13.90;97.90
7530;DHT22;3806;52.270;10.544;2022-11-04T09:00:23;14.10;97.30
7530;DHT22;3806;52.270;10.544;2022-11-04T09:02:48;14.20;96.40
7530;DHT22;3806;52.270;10.544;2022-11-04T09:05:14;14.20;95.40
7530;DHT22;3806;52.270;10.544;2022-11-04T09:07:41;14.20;95.20
7530;DHT22;3806;52.270;10.544;2022-11-04T09:10:08;14.20;95.50
7530;DHT22;3806;52.270;10.544;2022-11-04T09:12:34;14.10;95.40
7530;DHT22;3806;52.270;10.544;2022-11-04T09:15:00;14.20;95.40
7530;DHT22;3806;52.270;10.544;2022-11-04T09:17:26;14.10;95.40
7530;DHT22;3806;52.270;10.544;2022-11-04T09:19:52;14.10;95.30
7530;DHT22;3806;52.270;10.544;2022-11-04T09:22:18;14.00;95.40
7530;DHT22;3806;52.270;10.544;2022-11-04T09:24:43;14.00;95.50
7530;DHT22;3806;52.270;10.544;2022-11-04T09:27:09;14.00;95.50
7530;DHT22;3806;52.270;10.544;2022-11-04T09:29:34;14.00;95.40
7530;DHT22;3806;52.270;10.544;2022-11-04T09:32:01;14.00;95.40
7530;DHT22;3806;52.270;10.544;2022-11-04T09:34:27;14.20;95.40
7530;DHT22;3806;52.270;10.544;2022-11-04T09:36:56;14.10;95.40
7530;DHT22;3806;52.270;10.544;2022-11-04T09:39:22;14.00;95.30
7530;DHT22;3806;52.270;10.544;2022-11-04T09:44:55;13.80;95.40
7530;DHT22;3806;52.270;10.544;2022-11-04T09:47:24;13.80;95.60
7530;DHT22;3806;52.270;10.544;2022-11-04T09:49:53;13.80;95.70
7530;DHT22;3806;52.270;10.544;2022-11-04T09:52:31;13.80;95.70
7530;DHT22;3806;52.270;10.544;2022-11-04T09:57:36;13.90;95.20
7530;DHT22;3806;52.270;10.544;2022-11-04T10:00:03;13.90;95.10
7530;DHT22;3806;52.270;10.544;2022-11-04T10:05:06;14.20;94.90
7530;DHT22;3806;52.270;10.544;2022-11-04T10:07:55;14.30;94.70
7530;DHT22;3806;52.270;10.544;2022-11-04T10:10:31;14.70;94.50
7530;DHT22;3806;52.270;10.544;2022-11-04T10:13:30;15.20;94.20
7530;DHT22;3806;52.270;10.544;2022-11-04T10:16:09;15.60;92.90
7530;DHT22;3806;52.270;10.544;2022-11-04T10:27:02;16.30;89.80
7530;DHT22;3806;52.270;10.544;2022-11-04T10:32:10;16.40;87.90
7530;DHT22;3806;52.270;10.544;2022-11-04T10:34:55;16.40;87.20
7530;DHT22;3806;52.270;10.544;2022-11-04T10:37:23;16.30;86.50
7530;DHT22;3806;52.270;10.544;2022-11-04T10:39:57;16.20;85.00
7530;DHT22;3806;52.270;10.544;2022-11-04T10:42:24;16.10;84.40
7530;DHT22;3806;52.270;10.544;2022-11-04T10:44:51;16.00;84.10
7530;DHT22;3806;52.270;10.544;2022-11-04T10:47:41;15.80;84.10
7530;DHT22;3806;52.270;10.544;2022-11-04T10:50:13;15.70;84.70
7530;DHT22;3806;52.270;10.544;2022-11-04T10:52:41;15.50;85.00
7530;DHT22;3806;52.270;10.544;2022-11-04T10:55:17;15.30;85.60
7530;DHT22;3806;52.270;10.544;2022-11-04T10:57:46;15.20;85.80
7530;DHT22;3806;52.270;10.544;2022-11-04T11:00:32;15.00;86.50
7530;DHT22;3806;52.270;10.544;2022-11-04T11:02:57;14.90;86.80
7530;DHT22;3806;52.270;10.544;2022-11-04T11:05:24;14.70;87.80
7530;DHT22;3806;52.270;10.544;2022-11-04T11:07:55;14.60;88.80
7530;DHT22;3806;52.270;10.544;2022-11-04T11:10:32;14.50;89.60
7530;DHT22;3806;52.270;10.544;2022-11-04T11:15:37;14.70;90.00
7530;DHT22;3806;52.270;10.544;2022-11-04T11:20:38;14.90;89.80
7530;DHT22;3806;52.270;10.544;2022-11-04T11:26:14;15.00;89.10
7530;DHT22;3806;52.270;10.544;2022-11-04T11:28:40;14.90;89.00
7530;DHT22;3806;52.270;10.544;2022-11-04T11:31:13;14.90;89.10
7530;DHT22;3806;52.270;10.544;2022-11-04T11:36:19;14.80;89.80
7530;DHT22;3806;52.270;10.544;2022-11-04T11:41:58;14.70;89.40
7530;DHT22;3806;52.270;10.544;2022-11-04T11:44:30;14.50;89.20
7530;DHT22;3806;52.270;10.544;2022-11-04T11:47:06;14.50;89.70
7530;DHT22;3806;52.270;10.544;2022-11-04T11:49:38;14.40;89.70
7530;DHT22;3806;52.270;10.544;2022-11-04T11:52:26;14.40;90.00
7530;DHT22;3806;52.270;10.544;2022-11-04T11:57:38;14.50;90.20
7530;DHT22;3806;52.270;10.544;2022-11-04T12:00:13;14.50;90.30
7530;DHT22;3806;52.270;10.544;2022-11-04T12:03:07;14.50;90.40
7530;DHT22;3806;52.270;10.544;2022-11-04T12:28:42;15.00;88.20
7530;DHT22;3806;52.270;10.544;2022-11-04T12:33:54;15.00;87.70
7530;DHT22;3806;52.270;10.544;2022-11-04T12:47:36;15.10;87.80
7530;DHT22;3806;52.270;10.544;2022-11-04T12:56:05;15.10;88.30
7530;DHT22;3806;52.270;10.544;2022-11-04T12:58:48;15.20;88.50
7530;DHT22;3806;52.270;10.544;2022-11-04T13:01:33;15.20;88.00
7530;DHT22;3806;52.270;10.544;2022-11-04T13:04:14;15.10;87.30
7530;DHT22;3806;52.270;10.544;2022-11-04T13:06:50;15.20;87.10
7530;DHT22;3806;52.270;10.544;2022-11-04T13:11:58;15.20;86.60
7530;DHT22;3806;52.270;10.544;2022-11-04T13:14:28;15.20;87.00
7530;DHT22;3806;52.270;10.544;2022-11-04T13:17:03;15.10;87.10
7530;DHT22;3806;52.270;10.544;2022-11-04T13:19:44;14.90;86.90
7530;DHT22;3806;52.270;10.544;2022-11-04T13:22:21;14.70;87.80
7530;DHT22;3806;52.270;10.544;2022-11-04T13:24:57;14.50;88.70
7530;DHT22;3806;52.270;10.544;2022-11-04T13:30:35;14.30;90.30
7530;DHT22;3806;52.270;10.544;2022-11-04T13:33:36;14.20;90.70
7530;DHT22;3806;52.270;10.544;2022-11-04T13:39:19;14.30;91.30
7530;DHT22;3806;52.270;10.544;2022-11-04T13:44:51;14.50;91.40
7530;DHT22;3806;52.270;10.544;2022-11-04T13:47:21;14.60;91.40
7530;DHT22;3806;52.270;10.544;2022-11-04T13:49:53;14.60;91.40
7530;DHT22;3806;52.270;10.544;2022-11-04T13:52:20;14.70;91.50
7530;DHT22;3806;52.270;10.544;2022-11-04T13:57:28;14.90;90.60
7530;DHT22;3806;52.270;10.544;2022-11-04T14:02:46;15.10;90.00
7530;DHT22;3806;52.270;10.544;2022-11-04T14:18:37;14.90;89.50
7530;DHT22;3806;52.270;10.544;2022-11-04T14:23:38;14.70;90.10
7530;DHT22;3806;52.270;10.544;2022-11-04T14:26:06;14.60;90.20
7530;DHT22;3806;52.270;10.544;2022-11-04T14:28:33;14.50;90.40
7530;DHT22;3806;52.270;10.544;2022-11-04T14:31:07;14.50;90.80
7530;DHT22;3806;52.270;10.544;2022-11-04T14:33:48;14.40;91.10
7530;DHT22;3806;52.270;10.544;2022-11-04T14:44:01;14.30;92.60
7530;DHT22;3806;52.270;10.544;2022-11-04T14:46:31;14.30;92.90
7530;DHT22;3806;52.270;10.544;2022-11-04T14:48:58;14.20;92.80
7530;DHT22;3806;52.270;10.544;2022-11-04T14:51:27;14.20;92.70
7530;DHT22;3806;52.270;10.544;2022-11-04T14:54:39;14.10;92.60
7530;DHT22;3806;52.270;10.544;2022-11-04T14:57:13;14.10;92.60
7530;DHT22;3806;52.270;10.544;2022-11-04T14:59:39;14.00;92.60
7530;DHT22;3806;52.270;10.544;2022-11-04T15:02:12;14.00;92.70
7530;DHT22;3806;52.270;10.544;2022-11-04T15:04:47;13.90;92.80
7530;DHT22;3806;52.270;10.544;2022-11-04T15:07:33;13.90;92.90
7530;DHT22;3806;52.270;10.544;2022-11-04T15:09:59;13.90;93.10
7530;DHT22;3806;52.270;10.544;2022-11-04T15:12:25;13.80;93.20
7530;DHT22;3806;52.270;10.544;2022-11-04T15:15:32;13.80;93.40
7530;DHT22;3806;52.270;10.544;2022-11-04T15:18:11;13.90;93.60
7530;DHT22;3806;52.270;10.544;2022-11-04T15:20:50;13.90;93.60
7530;DHT22;3806;52.270;10.544;2022-11-04T15:23:32;13.80;93.70
7530;DHT22;3806;52.270;10.544;2022-11-04T15:25:59;13.80;93.80
7530;DHT22;3806;52.270;10.544;2022-11-04T15:28:31;13.70;93.90
7530;DHT22;3806;52.270;10.544;2022-11-04T15:33:30;13.60;94.10
7530;DHT22;3806;52.270;10.544;2022-11-04T15:35:57;13.60;94.10
7530;DHT22;3806;52.270;10.544;2022-11-04T15:38:25;13.50;94.20
7530;DHT22;3806;52.270;10.544;2022-11-04T15:40:52;13.50;94.40
7530;DHT22;3806;52.270;10.544;2022-11-04T15:43:17;13.40;94.50
7530;DHT22;3806;52.270;10.544;2022-11-04T15:45:51;13.40;94.70
7530;DHT22;3806;52.270;10.544;2022-11-04T15:51:01;13.30;95.10
7530;DHT22;3806;52.270;10.544;2022-11-04T15:53:28;13.20;95.30
7530;DHT22;3806;52.270;10.544;2022-11-04T15:55:55;13.20;95.50
7530;DHT22;3806;52.270;10.544;2022-11-04T15:58:21;13.10;95.60
7530;DHT22;3806;52.270;10.544;2022-11-04T16:00:54;13.10;95.80
7530;DHT22;3806;52.270;10.544;2022-11-04T16:03:21;13.00;95.80
7530;DHT22;3806;52.270;10.544;2022-11-04T16:06:07;13.00;96.10
7530;DHT22;3806;52.270;10.544;2022-11-04T16:08:34;13.00;96.30
7530;DHT22;3806;52.270;10.544;2022-11-04T16:11:17;12.90;96.40
7530;DHT22;3806;52.270;10.544;2022-11-04T16:13:44;13.00;96.40
7530;DHT22;3806;52.270;10.544;2022-11-04T16:16:24;13.00;96.50
7530;DHT22;3806;52.270;10.544;2022-11-04T16:18:56;13.00;96.50
7530;DHT22;3806;52.270;10.544;2022-11-04T16:21:30;12.90;96.40
7530;DHT22;3806;52.270;10.544;2022-11-04T16:26:27;12.90;96.50
7530;DHT22;3806;52.270;10.544;2022-11-04T16:28:55;12.90;96.50
7530;DHT22;3806;52.270;10.544;2022-11-04T16:33:50;12.90;96.50
7530;DHT22;3806;52.270;10.544;2022-11-04T16:36:16;12.80;96.60
7530;DHT22;3806;52.270;10.544;2022-11-04T16:38:52;12.80;96.60
7530;DHT22;3806;52.270;10.544;2022-11-04T16:41:18;12.80;96.80
7530;DHT22;3806;52.270;10.544;2022-11-04T16:43:44;12.70;96.90
7530;DHT22;3806;52.270;10.544;2022-11-04T16:46:11;12.70;97.20
7530;DHT22;3806;52.270;10.544;2022-11-04T16:48:36;12.70;97.00
7530;DHT22;3806;52.270;10.544;2022-11-04T16:51:02;12.60;97.00
7530;DHT22;3806;52.270;10.544;2022-11-04T16:53:28;12.60;97.10
7530;DHT22;3806;52.270;10.544;2022-11-04T16:55:54;12.60;97.30
7530;DHT22;3806;52.270;10.544;2022-11-04T16:58:21;12.60;97.30
7530;DHT22;3806;52.270;10.544;2022-11-04T17:00:47;12.60;97.40
7530;DHT22;3806;52.270;10.544;2022-11-04T17:03:17;12.60;97.40
7530;DHT22;3806;52.270;10.544;2022-11-04T17:05:53;12.60;97.50
7530;DHT22;3806;52.270;10.544;2022-11-04T17:08:20;12.60;97.60
7530;DHT22;3806;52.270;10.544;2022-11-04T17:10:46;12.70;97.70
7530;DHT22;3806;52.270;10.544;2022-11-04T17:13:12;12.70;97.70
7530;DHT22;3806;52.270;10.544;2022-11-04T17:15:38;12.70;97.80
7530;DHT22;3806;52.270;10.544;2022-11-04T17:18:03;12.70;97.80
7530;DHT22;3806;52.270;10.544;2022-11-04T17:20:29;12.70;97.90
7530;DHT22;3806;52.270;10.544;2022-11-04T17:22:56;12.70;97.90
7530;DHT22;3806;52.270;10.544;2022-11-04T17:25:24;12.70;98.00
7530;DHT22;3806;52.270;10.544;2022-11-04T17:27:50;12.70;98.00
7530;DHT22;3806;52.270;10.544;2022-11-04T17:30:16;12.70;98.20
7530;DHT22;3806;52.270;10.544;2022-11-04T17:32:43;12.70;98.20
7530;DHT22;3806;52.270;10.544;2022-11-04T17:35:09;12.70;98.20
7530;DHT22;3806;52.270;10.544;2022-11-04T17:37:35;12.70;98.20
7530;DHT22;3806;52.270;10.544;2022-11-04T17:40:02;12.70;98.20
7530;DHT22;3806;52.270;10.544;2022-11-04T17:42:28;12.70;98.30
7530;DHT22;3806;52.270;10.544;2022-11-04T17:45:12;12.70;98.30
7530;DHT22;3806;52.270;10.544;2022-11-04T17:47:37;12.70;98.30
7530;DHT22;3806;52.270;10.544;2022-11-04T17:50:04;12.70;98.40
7530;DHT22;3806;52.270;10.544;2022-11-04T17:52:31;12.70;98.40
7530;DHT22;3806;52.270;10.544;2022-11-04T17:54:57;12.70;98.50
7530;DHT22;3806;52.270;10.544;2022-11-04T17:57:22;12.70;98.50
7530;DHT22;3806;52.270;10.544;2022-11-04T17:59:48;12.70;98.50
7530;DHT22;3806;52.270;10.544;2022-11-04T18:02:14;12.70;98.60
7530;DHT22;3806;52.270;10.544;2022-11-04T18:04:39;12.70;98.50
7530;DHT22;3806;52.270;10.544;2022-11-04T18:07:05;12.70;98.70
7530;DHT22;3806;52.270;10.544;2022-11-04T18:09:31;12.70;99.10
7530;DHT22;3806;52.270;10.544;2022-11-04T18:11:58;12.70;98.80
7530;DHT22;3806;52.270;10.544;2022-11-04T18:14:42;12.70;99.00
7530;DHT22;3806;52.270;10.544;2022-11-04T18:17:08;12.70;99.00
7530;DHT22;3806;52.270;10.544;2022-11-04T18:19:33;12.70;98.90
7530;DHT22;3806;52.270;10.544;2022-11-04T18:22:00;12.70;98.90
7530;DHT22;3806;52.270;10.544;2022-11-04T18:24:25;12.70;98.90
7530;DHT22;3806;52.270;10.544;2022-11-04T18:26:52;12.70;98.90
7530;DHT22;3806;52.270;10.544;2022-11-04T18:29:18;12.70;98.90
7530;DHT22;3806;52.270;10.544;2022-11-04T18:31:44;12.70;98.90
7530;DHT22;3806;52.270;10.544;2022-11-04T18:34:13;12.70;98.90
7530;DHT22;3806;52.270;10.544;2022-11-04T18:36:39;12.70;98.90
7530;DHT22;3806;52.270;10.544;2022-11-04T18:39:06;12.70;99.00
7530;DHT22;3806;52.270;10.544;2022-11-04T18:41:34;12.60;99.00
7530;DHT22;3806;52.270;10.544;2022-11-04T18:44:00;12.70;99.10
7530;DHT22;3806;52.270;10.544;2022-11-04T18:46:26;12.60;99.00
7530;DHT22;3806;52.270;10.544;2022-11-04T18:48:51;12.70;99.10
7530;DHT22;3806;52.270;10.544;2022-11-04T18:51:26;12.60;99.00
7530;DHT22;3806;52.270;10.544;2022-11-04T18:53:52;12.60;99.00
7530;DHT22;3806;52.270;10.544;2022-11-04T18:56:19;12.60;99.00
7530;DHT22;3806;52.270;10.544;2022-11-04T18:58:45;12.60;99.00
7530;DHT22;3806;52.270;10.544;2022-11-04T19:03:46;12.60;99.10
7530;DHT22;3806;52.270;10.544;2022-11-04T19:06:15;12.60;99.10
7530;DHT22;3806;52.270;10.544;2022-11-04T19:08:41;12.60;99.20